KDFI/DFI METAR and TAF weather

Enter ICAO airport designator
Station Type Date Time Source
KDFI METAR 2020/09/18 21:53 UTC NOAA

KDFI 182153Z AUTO 02010KT 10SM CLR 17/01 A3027 RMK AO2 SLP253 T01720011


Station Type Date Time Source
KDFI Decoded METAR 2020/09/18 21:53 UTC NOAA

DEFIANCE MEMORIAL AIRPORT, OH, United States (KDFI) 41-20N 84-26W 219M
Sep 18, 2020 - 05:53 PM EDT / 2020.09.18 2153 UTC
Wind: from the NNE (020 degrees) at 12 MPH (10 KT):0
Visibility: 10 mile(s):0
Sky conditions: clear
Temperature: 63.0 F (17.2 C)
Dew Point: 34.0 F (1.1 C)
Relative Humidity: 33%
Pressure (altimeter): 30.27 in. Hg (1025 hPa)
ob: KDFI 182153Z AUTO 02010KT 10SM CLR 17/01 A3027 RMK AO2 SLP253 T01720011
cycle: 22

Station Type Date Time Source
KDFI TAF UTC NOAA

Error!

Example: see airport list